Time;durP1;ratioP1;P1;durP2;ratioP2;P2;SDS_P1;SDS_P2;PMS_P1;PMS_P2;Temp;Humidity;BMP_temperature;BMP_pressure;BME280_temperature;BME280_humidity;BME280_pressure;Samples;Min_cycle;Max_cycle;Signal;HPM_P1;HPM_P2
2023/04/15 00:00:44;;;;;;;;;;;5.20;99.90;;;;;;5103483;28;19928;-66
2023/04/15 00:03:11;;;;;;;;;;;5.10;99.90;;;;;;5107494;28;19928;-66
2023/04/15 00:05:38;;;;;;;;;;;5.20;99.90;;;;;;5103374;28;19973;-66
2023/04/15 00:08:06;;;;;;;;;;;5.10;99.90;;;;;;5100231;28;19923;-66
2023/04/15 00:10:33;;;;;;;;;;;5.10;99.90;;;;;;5106307;28;19931;-64
2023/04/15 00:13:00;;;;;;;;;;;4.90;99.90;;;;;;5100790;28;19924;-67
2023/04/15 00:15:27;;;;;;;;;;;4.90;99.90;;;;;;5106613;28;19931;-66
2023/04/15 00:17:54;;;;;;;;;;;4.80;99.90;;;;;;5094340;28;19969;-65
2023/04/15 00:20:21;;;;;;;;;;;4.80;99.90;;;;;;5100316;28;20383;-66
2023/04/15 00:22:48;;;;;;;;;;;4.80;99.90;;;;;;5104840;28;19923;-66
2023/04/15 00:25:16;;;;;;;;;;;4.80;99.90;;;;;;5099984;28;19977;-67
2023/04/15 00:27:43;;;;;;;;;;;4.80;99.90;;;;;;5107920;28;19923;-65
2023/04/15 00:30:10;;;;;;;;;;;4.90;99.90;;;;;;5091218;28;19925;-66
2023/04/15 00:32:37;;;;;;;;;;;4.90;99.90;;;;;;5106897;28;19928;-67
2023/04/15 00:35:04;;;;;;;;;;;4.90;99.90;;;;;;5101843;28;19924;-66
2023/04/15 00:37:31;;;;;;;;;;;4.90;99.90;;;;;;5092291;28;19931;-66
2023/04/15 00:39:57;;;;;;;;;;;4.70;99.90;;;;;;5105892;28;19925;-66
2023/04/15 00:42:26;;;;;;;;;;;4.60;99.90;;;;;;5099442;28;19949;-66
2023/04/15 00:44:53;;;;;;;;;;;4.60;99.90;;;;;;5110124;28;19927;-65
2023/04/15 00:47:22;;;;;;;;;;;4.50;99.90;;;;;;5101535;28;19930;-66
2023/04/15 00:49:49;;;;;;;;;;;4.50;99.90;;;;;;5109280;28;20466;-66
2023/04/15 00:52:16;;;;;;;;;;;4.50;99.90;;;;;;5101996;28;20348;-66
2023/04/15 00:54:43;;;;;;;;;;;4.50;99.90;;;;;;5101476;28;19933;-64
2023/04/15 00:57:09;;;;;;;;;;;4.50;99.90;;;;;;5097241;28;20398;-67
2023/04/15 00:59:38;;;;;;;;;;;4.50;99.90;;;;;;5095429;28;19928;-66
2023/04/15 01:02:06;;;;;;;;;;;4.40;99.90;;;;;;5108826;28;19927;-66
2023/04/15 01:04:32;;;;;;;;;;;4.40;99.90;;;;;;5094597;28;19924;-66
2023/04/15 01:06:59;;;;;;;;;;;4.40;99.90;;;;;;5098807;28;19974;-66
2023/04/15 01:09:26;;;;;;;;;;;4.50;99.90;;;;;;5099585;28;19928;-66
2023/04/15 01:11:53;;;;;;;;;;;4.50;99.90;;;;;;5102303;28;19924;-66
2023/04/15 01:14:19;;;;;;;;;;;4.50;99.90;;;;;;5102864;28;19924;-64
2023/04/15 01:16:48;;;;;;;;;;;4.50;99.90;;;;;;5102611;28;19924;-65
2023/04/15 01:19:16;;;;;;;;;;;4.50;99.90;;;;;;5104605;28;19973;-66
2023/04/15 01:21:43;;;;;;;;;;;4.40;99.90;;;;;;5092541;28;19931;-64
2023/04/15 01:24:10;;;;;;;;;;;4.50;99.90;;;;;;5103565;28;20283;-66
2023/04/15 01:26:39;;;;;;;;;;;4.50;99.90;;;;;;5101168;28;19928;-67
2023/04/15 01:29:08;;;;;;;;;;;4.50;99.90;;;;;;5104557;28;19961;-67
2023/04/15 01:31:35;;;;;;;;;;;4.50;99.90;;;;;;5099054;28;19930;-67
2023/04/15 01:34:02;;;;;;;;;;;4.40;99.90;;;;;;5102298;28;19956;-66
2023/04/15 01:36:29;;;;;;;;;;;4.40;99.90;;;;;;5103001;28;19927;-66
2023/04/15 01:38:56;;;;;;;;;;;4.40;99.90;;;;;;5094497;28;19924;-65
2023/04/15 01:41:25;;;;;;;;;;;4.40;99.90;;;;;;5103611;28;20366;-66
2023/04/15 01:43:53;;;;;;;;;;;4.50;99.90;;;;;;5101780;28;19924;-66
2023/04/15 01:46:20;;;;;;;;;;;4.50;99.90;;;;;;5102300;28;19924;-65
2023/04/15 01:48:47;;;;;;;;;;;4.60;99.90;;;;;;5101428;28;19932;-66
2023/04/15 01:51:14;;;;;;;;;;;4.60;99.90;;;;;;5097053;28;19924;-66
2023/04/15 01:53:40;;;;;;;;;;;4.60;99.90;;;;;;5097631;28;19931;-67
2023/04/15 01:56:08;;;;;;;;;;;4.50;99.90;;;;;;5102670;28;20436;-64
2023/04/15 01:58:36;;;;;;;;;;;4.50;99.90;;;;;;5097749;28;19924;-66
2023/04/15 02:01:04;;;;;;;;;;;4.50;99.90;;;;;;5102403;28;19974;-66
2023/04/15 02:03:32;;;;;;;;;;;4.40;99.90;;;;;;5100817;28;20374;-66
2023/04/15 02:05:59;;;;;;;;;;;4.40;99.90;;;;;;5099016;28;19993;-67
2023/04/15 02:08:27;;;;;;;;;;;4.40;99.90;;;;;;5104685;28;19977;-66
2023/04/15 02:10:54;;;;;;;;;;;4.40;99.90;;;;;;5094934;28;20352;-66
2023/04/15 02:13:21;;;;;;;;;;;4.40;99.90;;;;;;5104135;28;19953;-66
2023/04/15 02:15:49;;;;;;;;;;;4.30;99.90;;;;;;5103868;28;19928;-65
2023/04/15 02:18:20;;;;;;;;;;;4.30;99.90;;;;;;5104832;28;19930;-66
2023/04/15 02:20:47;;;;;;;;;;;4.30;99.90;;;;;;5100953;28;20011;-64
2023/04/15 02:23:14;;;;;;;;;;;4.30;99.90;;;;;;5098621;28;20284;-65
2023/04/15 02:25:43;;;;;;;;;;;4.30;99.90;;;;;;5100642;28;19974;-66
2023/04/15 02:28:10;;;;;;;;;;;4.30;99.90;;;;;;5095808;28;19925;-66
2023/04/15 02:30:37;;;;;;;;;;;4.30;99.90;;;;;;5104520;28;20343;-66
2023/04/15 02:33:04;;;;;;;;;;;4.40;99.90;;;;;;5099637;28;19939;-66
2023/04/15 02:35:33;;;;;;;;;;;4.40;99.90;;;;;;5102735;28;19924;-66
2023/04/15 02:37:59;;;;;;;;;;;4.40;99.90;;;;;;5107159;28;19932;-65
2023/04/15 02:40:27;;;;;;;;;;;4.30;99.90;;;;;;5103549;28;19936;-65
2023/04/15 02:42:54;;;;;;;;;;;4.40;99.90;;;;;;5113247;28;19924;-66
2023/04/15 02:45:23;;;;;;;;;;;4.30;99.90;;;;;;5097880;28;19924;-66
2023/04/15 02:47:49;;;;;;;;;;;4.30;99.90;;;;;;5112571;28;20477;-66
2023/04/15 02:50:16;;;;;;;;;;;4.20;99.90;;;;;;5104513;28;19925;-66
2023/04/15 02:52:44;;;;;;;;;;;4.20;99.90;;;;;;5103684;28;20264;-66
2023/04/15 02:55:12;;;;;;;;;;;4.20;99.90;;;;;;5106073;28;19924;-65
2023/04/15 02:57:39;;;;;;;;;;;4.10;99.90;;;;;;5102048;28;19931;-66
2023/04/15 03:00:10;;;;;;;;;;;4.10;99.90;;;;;;5106698;28;19924;-67
2023/04/15 03:02:40;;;;;;;;;;;4.10;99.90;;;;;;5097164;28;19924;-66
2023/04/15 03:05:11;;;;;;;;;;;3.90;99.90;;;;;;5108037;28;19942;-65
2023/04/15 03:07:39;;;;;;;;;;;3.90;99.90;;;;;;5093615;28;19967;-66
2023/04/15 03:10:08;;;;;;;;;;;3.80;99.90;;;;;;5105460;28;20019;-65
2023/04/15 03:12:35;;;;;;;;;;;3.80;99.90;;;;;;5103075;28;19931;-66
2023/04/15 03:15:02;;;;;;;;;;;3.70;99.90;;;;;;5106110;28;19924;-63
2023/04/15 03:17:35;;;;;;;;;;;3.80;99.90;;;;;;5102856;28;19979;-66
2023/04/15 03:20:03;;;;;;;;;;;3.80;99.90;;;;;;5095201;28;20467;-64
2023/04/15 03:22:30;;;;;;;;;;;3.80;99.90;;;;;;5104804;28;19971;-63
2023/04/15 03:24:57;;;;;;;;;;;3.80;99.90;;;;;;5100586;28;19928;-65
2023/04/15 03:27:26;;;;;;;;;;;3.80;99.90;;;;;;5093725;28;19924;-66
2023/04/15 03:29:55;;;;;;;;;;;3.80;99.90;;;;;;5104984;28;19924;-66
2023/04/15 03:32:24;;;;;;;;;;;3.80;99.90;;;;;;5104430;28;19923;-67
2023/04/15 03:34:51;;;;;;;;;;;3.80;99.90;;;;;;5104765;28;19923;-66
2023/04/15 03:37:18;;;;;;;;;;;3.80;99.90;;;;;;5106340;28;19928;-66
2023/04/15 03:39:45;;;;;;;;;;;3.80;99.90;;;;;;5103566;28;20378;-66
2023/04/15 03:42:12;;;;;;;;;;;3.80;99.90;;;;;;5106101;28;19928;-66
2023/04/15 03:44:40;;;;;;;;;;;3.80;99.90;;;;;;5095256;28;20371;-66
2023/04/15 03:47:06;;;;;;;;;;;3.70;99.90;;;;;;5100516;28;19984;-66
2023/04/15 03:49:33;;;;;;;;;;;3.70;99.90;;;;;;5109742;28;20468;-66
2023/04/15 03:52:00;;;;;;;;;;;3.70;99.90;;;;;;5102881;28;19924;-65
2023/04/15 03:54:27;;;;;;;;;;;3.60;99.90;;;;;;5107113;28;19928;-66
2023/04/15 03:56:54;;;;;;;;;;;3.60;99.90;;;;;;5100389;28;20361;-66
2023/04/15 03:59:20;;;;;;;;;;;3.50;99.90;;;;;;5106964;28;19924;-65
2023/04/15 04:01:48;;;;;;;;;;;3.50;99.90;;;;;;5104157;28;19924;-64
2023/04/15 04:04:15;;;;;;;;;;;3.50;99.90;;;;;;5106799;28;19931;-66
2023/04/15 04:06:42;;;;;;;;;;;3.40;99.90;;;;;;5107301;28;19924;-66
2023/04/15 04:09:09;;;;;;;;;;;3.40;99.90;;;;;;5102489;28;20320;-66
2023/04/15 04:11:36;;;;;;;;;;;3.40;99.90;;;;;;5107898;28;19928;-66
2023/04/15 04:14:03;;;;;;;;;;;3.30;99.90;;;;;;5096341;28;19924;-66
2023/04/15 04:16:30;;;;;;;;;;;3.30;99.90;;;;;;5100062;28;19923;-65
2023/04/15 04:18:58;;;;;;;;;;;3.30;99.90;;;;;;5102654;28;19931;-66
2023/04/15 04:21:25;;;;;;;;;;;3.20;99.90;;;;;;5108376;28;19927;-65
2023/04/15 04:23:52;;;;;;;;;;;3.30;99.90;;;;;;5097435;28;20014;-66
2023/04/15 04:26:19;;;;;;;;;;;3.30;99.90;;;;;;5096829;28;19931;-66
2023/04/15 04:28:45;;;;;;;;;;;3.30;99.90;;;;;;5107736;28;20456;-66
2023/04/15 04:31:13;;;;;;;;;;;3.30;99.90;;;;;;5101280;28;19924;-65
2023/04/15 04:33:40;;;;;;;;;;;3.30;99.90;;;;;;5101284;28;19977;-66
2023/04/15 04:36:08;;;;;;;;;;;3.30;99.90;;;;;;5098007;28;19928;-67
2023/04/15 04:38:35;;;;;;;;;;;3.30;99.90;;;;;;5097933;28;19928;-71
2023/04/15 04:41:02;;;;;;;;;;;3.20;99.90;;;;;;5080097;28;19931;-67
2023/04/15 04:43:29;;;;;;;;;;;3.20;99.90;;;;;;5084205;28;19936;-67
2023/04/15 04:45:56;;;;;;;;;;;3.20;99.90;;;;;;5073824;28;20346;-65
2023/04/15 04:48:22;;;;;;;;;;;3.20;99.90;;;;;;5088661;28;19992;-65
2023/04/15 04:50:49;;;;;;;;;;;3.20;99.90;;;;;;5083496;28;19958;-65
2023/04/15 04:53:17;;;;;;;;;;;3.20;99.90;;;;;;5085374;28;20306;-65
2023/04/15 04:55:44;;;;;;;;;;;3.20;99.90;;;;;;5089247;28;19979;-65
2023/04/15 04:58:11;;;;;;;;;;;3.20;99.90;;;;;;5078115;28;19951;-66
2023/04/15 05:00:38;;;;;;;;;;;3.20;99.90;;;;;;5084621;28;20422;-66
2023/04/15 05:03:05;;;;;;;;;;;3.30;99.90;;;;;;5077662;28;19924;-65
2023/04/15 05:05:31;;;;;;;;;;;3.40;99.90;;;;;;5091011;28;20388;-66
2023/04/15 05:07:58;;;;;;;;;;;3.30;99.90;;;;;;5078760;28;19928;-65
2023/04/15 05:10:26;;;;;;;;;;;3.40;99.90;;;;;;5084765;28;19981;-66
2023/04/15 05:12:53;;;;;;;;;;;3.30;99.90;;;;;;5086355;28;19931;-66
2023/04/15 05:15:20;;;;;;;;;;;3.20;99.90;;;;;;5085754;28;19924;-66
2023/04/15 05:17:47;;;;;;;;;;;3.20;99.90;;;;;;5087555;28;20002;-66
2023/04/15 05:20:14;;;;;;;;;;;3.20;99.90;;;;;;5074966;28;19924;-66
2023/04/15 05:22:41;;;;;;;;;;;3.20;99.90;;;;;;5084756;28;19946;-66
2023/04/15 05:25:08;;;;;;;;;;;3.30;99.90;;;;;;5077814;28;19940;-66
2023/04/15 05:27:36;;;;;;;;;;;3.40;99.90;;;;;;5080940;28;19928;-66
2023/04/15 05:30:04;;;;;;;;;;;3.40;99.90;;;;;;5083316;28;19924;-66
2023/04/15 05:32:31;;;;;;;;;;;3.50;99.90;;;;;;5097949;28;19924;-66
2023/04/15 05:34:57;;;;;;;;;;;3.60;99.90;;;;;;5098188;28;20368;-66
2023/04/15 05:37:24;;;;;;;;;;;3.70;99.90;;;;;;5090583;28;19924;-67
2023/04/15 05:39:51;;;;;;;;;;;3.80;99.90;;;;;;5091232;28;19931;-66
2023/04/15 05:42:18;;;;;;;;;;;3.90;99.90;;;;;;5096836;28;20349;-66
2023/04/15 05:44:46;;;;;;;;;;;4.00;99.90;;;;;;5095814;28;19925;-66
2023/04/15 05:47:13;;;;;;;;;;;4.10;99.90;;;;;;5092036;28;20282;-65
2023/04/15 05:49:40;;;;;;;;;;;4.20;99.90;;;;;;5095811;28;20379;-66
2023/04/15 05:52:06;;;;;;;;;;;4.40;99.90;;;;;;5089871;28;19928;-66
2023/04/15 05:54:33;;;;;;;;;;;4.60;99.90;;;;;;5096204;28;19984;-66
2023/04/15 05:57:00;;;;;;;;;;;4.70;99.90;;;;;;5086904;28;20369;-65
2023/04/15 05:59:27;;;;;;;;;;;4.90;99.90;;;;;;5097736;28;19969;-65
2023/04/15 06:01:55;;;;;;;;;;;5.00;99.90;;;;;;5102954;28;19935;-65
2023/04/15 06:04:22;;;;;;;;;;;5.10;99.90;;;;;;5090099;28;19924;-66
2023/04/15 06:06:49;;;;;;;;;;;5.20;99.90;;;;;;5084636;28;19936;-66
2023/04/15 06:09:16;;;;;;;;;;;5.30;99.90;;;;;;5087474;28;20332;-65
2023/04/15 06:11:43;;;;;;;;;;;5.40;99.90;;;;;;5088479;28;19967;-67
2023/04/15 06:14:10;;;;;;;;;;;5.50;99.90;;;;;;5085700;28;19928;-65
2023/04/15 06:16:36;;;;;;;;;;;5.50;99.90;;;;;;5091827;28;19964;-66
2023/04/15 06:19:05;;;;;;;;;;;5.60;99.90;;;;;;5086625;28;20398;-66
2023/04/15 06:21:31;;;;;;;;;;;5.70;99.90;;;;;;5089114;28;19931;-66
2023/04/15 06:23:59;;;;;;;;;;;5.90;99.90;;;;;;5092296;28;19924;-66
2023/04/15 06:26:26;;;;;;;;;;;6.00;99.90;;;;;;5095163;28;19973;-66
2023/04/15 06:28:52;;;;;;;;;;;6.20;99.90;;;;;;5087266;28;20510;-66
2023/04/15 06:31:19;;;;;;;;;;;6.30;99.90;;;;;;5100011;28;19943;-66
2023/04/15 06:33:46;;;;;;;;;;;6.50;99.90;;;;;;5093493;28;20272;-65
2023/04/15 06:36:14;;;;;;;;;;;6.60;99.90;;;;;;5099237;28;19931;-66
2023/04/15 06:38:41;;;;;;;;;;;6.80;99.90;;;;;;5101314;28;19924;-67
2023/04/15 06:41:08;;;;;;;;;;;7.00;99.90;;;;;;5104187;28;20406;-67
2023/04/15 06:43:35;;;;;;;;;;;7.10;99.90;;;;;;5101976;28;19955;-67
2023/04/15 06:46:02;;;;;;;;;;;7.20;99.90;;;;;;5094355;28;20402;-67
2023/04/15 06:48:29;;;;;;;;;;;7.30;99.90;;;;;;5106054;28;20011;-67
2023/04/15 06:50:57;;;;;;;;;;;7.40;99.90;;;;;;5095121;28;19924;-66
2023/04/15 06:53:25;;;;;;;;;;;7.60;99.90;;;;;;5098912;28;19991;-66
2023/04/15 06:55:52;;;;;;;;;;;7.70;99.90;;;;;;5102252;28;19963;-66
2023/04/15 06:58:19;;;;;;;;;;;7.80;99.90;;;;;;5103734;28;20386;-66
2023/04/15 07:00:46;;;;;;;;;;;7.90;99.90;;;;;;5103716;28;19925;-67
2023/04/15 07:03:13;;;;;;;;;;;8.00;99.90;;;;;;5098222;28;19924;-67
2023/04/15 07:05:40;;;;;;;;;;;8.10;99.90;;;;;;5101977;28;20028;-67
2023/04/15 07:08:07;;;;;;;;;;;8.20;99.90;;;;;;5091483;28;19980;-66
2023/04/15 07:10:36;;;;;;;;;;;8.20;99.90;;;;;;5100900;28;20436;-67
2023/04/15 07:13:02;;;;;;;;;;;8.30;99.90;;;;;;5094708;28;19924;-66
2023/04/15 07:15:29;;;;;;;;;;;8.40;99.90;;;;;;5076573;28;19928;-66
2023/04/15 07:17:56;;;;;;;;;;;8.40;99.90;;;;;;5099333;28;20482;-66
2023/04/15 07:20:23;;;;;;;;;;;8.30;99.90;;;;;;5082029;28;19928;-66
2023/04/15 07:22:49;;;;;;;;;;;8.30;99.90;;;;;;5095845;28;20276;-66
2023/04/15 07:25:16;;;;;;;;;;;8.30;99.90;;;;;;5088132;28;19984;-66
2023/04/15 07:27:45;;;;;;;;;;;8.30;99.90;;;;;;5101685;28;19924;-66
2023/04/15 07:30:12;;;;;;;;;;;8.40;99.90;;;;;;5097825;28;19924;-66
2023/04/15 07:32:39;;;;;;;;;;;8.50;99.90;;;;;;5104376;28;20006;-66
2023/04/15 07:35:06;;;;;;;;;;;8.60;99.90;;;;;;5088709;28;19963;-67
2023/04/15 07:37:33;;;;;;;;;;;8.70;99.90;;;;;;5092565;28;20027;-67
2023/04/15 07:40:00;;;;;;;;;;;8.80;99.90;;;;;;5090592;28;20403;-67
2023/04/15 07:42:28;;;;;;;;;;;8.80;99.90;;;;;;5094974;28;19927;-67
2023/04/15 07:44:56;;;;;;;;;;;8.90;99.90;;;;;;5087188;28;19931;-68
2023/04/15 07:47:23;;;;;;;;;;;9.00;99.90;;;;;;5088607;28;19928;-67
2023/04/15 07:49:50;;;;;;;;;;;9.10;99.90;;;;;;5095893;28;20339;-67
2023/04/15 07:52:17;;;;;;;;;;;9.30;99.90;;;;;;5085681;28;19924;-65
2023/04/15 07:54:43;;;;;;;;;;;9.40;99.90;;;;;;5099721;28;20350;-68
2023/04/15 07:57:10;;;;;;;;;;;9.50;99.90;;;;;;5091529;28;19928;-68
2023/04/15 07:59:37;;;;;;;;;;;9.50;99.90;;;;;;5096507;28;19990;-66
2023/04/15 08:02:05;;;;;;;;;;;9.60;99.90;;;;;;5097572;28;19924;-67
2023/04/15 08:04:32;;;;;;;;;;;9.60;99.90;;;;;;5087582;28;19924;-67
2023/04/15 08:06:59;;;;;;;;;;;9.60;99.90;;;;;;5090120;28;19924;-66
2023/04/15 08:09:26;;;;;;;;;;;9.70;99.90;;;;;;5087257;28;19928;-66
2023/04/15 08:11:53;;;;;;;;;;;9.80;99.90;;;;;;5103676;28;20287;-68
2023/04/15 08:14:20;;;;;;;;;;;10.00;99.90;;;;;;5089780;28;19935;-66
2023/04/15 08:16:47;;;;;;;;;;;10.10;99.90;;;;;;5092401;28;19929;-67
2023/04/15 08:19:15;;;;;;;;;;;10.30;99.90;;;;;;5094748;28;19980;-66
2023/04/15 08:21:42;;;;;;;;;;;10.40;99.90;;;;;;5084398;28;19927;-67
2023/04/15 08:24:10;;;;;;;;;;;10.60;99.90;;;;;;5088577;28;19932;-68
2023/04/15 08:26:36;;;;;;;;;;;10.80;99.90;;;;;;5088302;28;19924;-67
2023/04/15 08:29:03;;;;;;;;;;;10.90;99.90;;;;;;5099661;28;19930;-67
2023/04/15 08:31:30;;;;;;;;;;;10.90;99.90;;;;;;5096432;28;20420;-66
2023/04/15 08:33:57;;;;;;;;;;;11.00;99.90;;;;;;5103325;28;19924;-67
2023/04/15 08:36:25;;;;;;;;;;;11.10;99.90;;;;;;5070560;22;20364;-69
2023/04/15 08:38:52;;;;;;;;;;;11.10;99.90;;;;;;5050492;28;19952;-68
2023/04/15 08:41:20;;;;;;;;;;;11.20;99.90;;;;;;5030418;28;19980;-68
2023/04/15 08:43:51;;;;;;;;;;;11.30;99.90;;;;;;5034659;28;20399;-69
2023/04/15 08:46:18;;;;;;;;;;;11.20;99.90;;;;;;5035924;28;19950;-67
2023/04/15 08:48:45;;;;;;;;;;;11.30;99.90;;;;;;5030164;28;19936;-68
2023/04/15 08:51:14;;;;;;;;;;;11.50;99.90;;;;;;5031589;28;20407;-68
2023/04/15 08:53:43;;;;;;;;;;;11.70;99.90;;;;;;5032782;28;19932;-67
2023/04/15 08:56:10;;;;;;;;;;;11.90;99.90;;;;;;5031936;28;19926;-66
2023/04/15 08:58:37;;;;;;;;;;;11.90;99.90;;;;;;5029888;28;20388;-69
2023/04/15 09:01:04;;;;;;;;;;;12.10;99.90;;;;;;5029807;28;20023;-68
2023/04/15 09:03:31;;;;;;;;;;;12.20;99.90;;;;;;5030996;28;19956;-68
2023/04/15 09:05:59;;;;;;;;;;;12.30;99.90;;;;;;5046310;28;19929;-67
2023/04/15 09:08:25;;;;;;;;;;;12.50;99.90;;;;;;5029689;28;20016;-69
2023/04/15 09:10:53;;;;;;;;;;;12.50;99.90;;;;;;5029403;28;20020;-68
2023/04/15 09:13:20;;;;;;;;;;;12.60;99.90;;;;;;5029335;28;19975;-68
2023/04/15 09:15:47;;;;;;;;;;;12.60;99.90;;;;;;5029214;28;19926;-69
2023/04/15 09:18:26;;;;;;;;;;;12.80;99.90;;;;;;5029765;28;19925;-66
2023/04/15 09:20:53;;;;;;;;;;;12.90;99.90;;;;;;5029782;28;19948;-69
2023/04/15 09:23:20;;;;;;;;;;;12.90;99.90;;;;;;5045846;28;19929;-68
2023/04/15 09:25:48;;;;;;;;;;;13.00;99.90;;;;;;5049656;28;19924;-68
2023/04/15 09:28:23;;;;;;;;;;;13.10;99.90;;;;;;5024164;28;19926;-68
2023/04/15 09:30:51;;;;;;;;;;;13.30;99.90;;;;;;5046130;28;19975;-69
2023/04/15 09:33:18;;;;;;;;;;;13.30;99.90;;;;;;5048532;28;19972;-70
2023/04/15 09:35:55;;;;;;;;;;;13.50;99.90;;;;;;5030901;28;19925;-66
2023/04/15 09:38:22;;;;;;;;;;;13.60;99.90;;;;;;5028638;28;19932;-67
2023/04/15 09:40:49;;;;;;;;;;;13.70;99.90;;;;;;5029460;28;19933;-66
2023/04/15 09:43:17;;;;;;;;;;;13.70;99.90;;;;;;5048363;28;19976;-65
2023/04/15 09:45:47;;;;;;;;;;;13.60;99.90;;;;;;5050053;28;19925;-65
2023/04/15 09:48:15;;;;;;;;;;;13.50;99.90;;;;;;5044722;28;19925;-68
2023/04/15 09:50:42;;;;;;;;;;;13.70;99.90;;;;;;5050072;28;20341;-66
2023/04/15 09:53:09;;;;;;;;;;;13.80;99.90;;;;;;5033100;28;20355;-66
2023/04/15 09:55:36;;;;;;;;;;;13.80;99.90;;;;;;5038799;28;19928;-67
2023/04/15 09:58:08;;;;;;;;;;;13.80;99.90;;;;;;5033253;28;19992;-68
2023/04/15 10:00:37;;;;;;;;;;;13.80;99.90;;;;;;5049454;28;19969;-67
2023/04/15 10:03:05;;;;;;;;;;;13.70;99.90;;;;;;5050027;28;19925;-67
2023/04/15 10:05:32;;;;;;;;;;;13.70;99.90;;;;;;5049930;28;20307;-67
2023/04/15 10:08:01;;;;;;;;;;;13.90;99.90;;;;;;5052321;28;19979;-68
2023/04/15 10:10:28;;;;;;;;;;;14.00;99.90;;;;;;5036916;28;20413;-67
2023/04/15 10:12:56;;;;;;;;;;;13.90;99.90;;;;;;5029840;28;19958;-67
2023/04/15 10:15:23;;;;;;;;;;;14.10;99.90;;;;;;5050615;28;19925;-67
2023/04/15 10:17:53;;;;;;;;;;;14.20;99.90;;;;;;5049176;28;20408;-68
2023/04/15 10:20:20;;;;;;;;;;;14.40;99.90;;;;;;5028029;28;19925;-68
2023/04/15 10:22:47;;;;;;;;;;;14.60;99.90;;;;;;5052215;28;19925;-68
2023/04/15 10:25:15;;;;;;;;;;;14.70;99.90;;;;;;5049108;28;20392;-67
2023/04/15 10:27:42;;;;;;;;;;;14.60;99.90;;;;;;5050821;28;19924;-66
2023/04/15 10:30:10;;;;;;;;;;;14.40;99.90;;;;;;5032329;28;20307;-67
2023/04/15 10:32:37;;;;;;;;;;;14.20;99.90;;;;;;5049074;28;19925;-67
2023/04/15 10:35:08;;;;;;;;;;;14.20;99.90;;;;;;5032073;28;19925;-67
2023/04/15 10:37:36;;;;;;;;;;;14.30;99.90;;;;;;5050953;28;19925;-67
2023/04/15 10:40:17;;;;;;;;;;;14.10;99.90;;;;;;5031454;28;19925;-67
2023/04/15 10:42:44;;;;;;;;;;;14.30;99.90;;;;;;5032154;28;19925;-65
2023/04/15 10:45:16;;;;;;;;;;;14.40;99.90;;;;;;5050520;28;19925;-68
2023/04/15 10:47:43;;;;;;;;;;;14.60;99.90;;;;;;5032659;28;19929;-67
2023/04/15 10:50:11;;;;;;;;;;;14.60;99.90;;;;;;5032127;28;19925;-67
2023/04/15 10:52:40;;;;;;;;;;;14.80;99.90;;;;;;5032038;28;19975;-66
2023/04/15 10:55:13;;;;;;;;;;;15.10;99.90;;;;;;5047949;28;20395;-66
2023/04/15 10:57:40;;;;;;;;;;;14.90;99.90;;;;;;5046945;28;19925;-67
2023/04/15 11:00:12;;;;;;;;;;;14.70;99.90;;;;;;5048370;28;19955;-67
2023/04/15 11:02:39;;;;;;;;;;;14.90;99.90;;;;;;5031550;28;20446;-67
2023/04/15 11:05:07;;;;;;;;;;;15.30;99.90;;;;;;5047131;28;20319;-67
2023/04/15 11:07:36;;;;;;;;;;;15.50;99.90;;;;;;5029529;28;19929;-68
2023/04/15 11:10:03;;;;;;;;;;;15.60;99.90;;;;;;5031677;28;19925;-67
2023/04/15 11:12:36;;;;;;;;;;;15.70;99.90;;;;;;5031618;28;19929;-67
2023/04/15 11:15:22;;;;;;;;;;;15.90;99.90;;;;;;5048089;28;20304;-66
2023/04/15 11:17:49;;;;;;;;;;;16.00;99.90;;;;;;5031004;28;20361;-68
2023/04/15 11:20:16;;;;;;;;;;;16.00;99.90;;;;;;5031380;28;19968;-67
2023/04/15 11:22:48;;;;;;;;;;;16.20;99.90;;;;;;5048026;28;19933;-68
2023/04/15 11:25:22;;;;;;;;;;;16.40;99.90;;;;;;5048159;28;19925;-68
2023/04/15 11:27:49;;;;;;;;;;;16.20;99.90;;;;;;5048095;28;19933;-69
2023/04/15 11:30:21;;;;;;;;;;;15.90;99.90;;;;;;5033799;28;19929;-78
2023/04/15 11:32:47;;;;;;;;;;;15.40;99.90;;;;;;5031210;28;19925;-68
2023/04/15 11:35:14;;;;;;;;;;;15.30;99.90;;;;;;5047921;28;19925;-71
2023/04/15 11:37:42;;;;;;;;;;;15.40;99.90;;;;;;5047647;28;19925;-67
2023/04/15 11:40:10;;;;;;;;;;;15.30;99.90;;;;;;5044885;28;19964;-68
2023/04/15 11:42:37;;;;;;;;;;;15.20;99.90;;;;;;5030534;28;19925;-67
2023/04/15 11:45:08;;;;;;;;;;;15.00;99.90;;;;;;5031349;28;19929;-67
2023/04/15 11:47:35;;;;;;;;;;;15.20;99.90;;;;;;5047717;28;19925;-66
2023/04/15 11:50:13;;;;;;;;;;;15.70;99.90;;;;;;5031059;28;19979;-67
2023/04/15 11:52:41;;;;;;;;;;;15.80;99.90;;;;;;5045615;28;20342;-67
2023/04/15 11:55:08;;;;;;;;;;;16.10;99.90;;;;;;5046998;28;19925;-67
2023/04/15 11:57:36;;;;;;;;;;;17.40;99.90;;;;;;5031016;28;19957;-68
2023/04/15 12:00:04;;;;;;;;;;;18.50;99.90;;;;;;5047656;28;19925;-67
2023/04/15 12:02:32;;;;;;;;;;;19.30;99.90;;;;;;5030683;28;20436;-63
2023/04/15 12:05:04;;;;;;;;;;;19.70;99.90;;;;;;5046602;28;19925;-69
2023/04/15 12:07:30;;;;;;;;;;;19.00;99.90;;;;;;5030691;28;19929;-67
2023/04/15 12:09:57;;;;;;;;;;;18.30;99.90;;;;;;5030666;28;19933;-67
2023/04/15 12:12:27;;;;;;;;;;;18.20;99.90;;;;;;5047552;28;19925;-68
2023/04/15 12:14:56;;;;;;;;;;;17.70;99.90;;;;;;5029470;28;20414;-69
2023/04/15 12:17:23;;;;;;;;;;;17.20;99.90;;;;;;5043823;28;19925;-68
2023/04/15 12:19:55;;;;;;;;;;;17.60;99.90;;;;;;5030097;28;19948;-69
2023/04/15 12:22:23;;;;;;;;;;;17.90;99.90;;;;;;5029759;28;19929;-69
2023/04/15 12:24:56;;;;;;;;;;;17.00;99.90;;;;;;5030646;28;19925;-67
2023/04/15 12:27:26;;;;;;;;;;;17.20;99.90;;;;;;5034930;28;19979;-67
2023/04/15 12:30:03;;;;;;;;;;;17.30;99.90;;;;;;5046549;28;19975;-69
2023/04/15 12:32:35;;;;;;;;;;;18.90;99.90;;;;;;5049059;28;20355;-64
2023/04/15 12:35:01;;;;;;;;;;;20.30;99.90;;;;;;5028501;28;19968;-65
2023/04/15 12:37:28;;;;;;;;;;;20.00;99.90;;;;;;5030451;28;19933;-67
2023/04/15 12:39:55;;;;;;;;;;;19.50;99.90;;;;;;5029216;28;20351;-63
2023/04/15 12:42:22;;;;;;;;;;;19.40;99.90;;;;;;5030037;28;19926;-66
2023/04/15 12:44:49;;;;;;;;;;;19.00;99.90;;;;;;5029754;28;19933;-66
2023/04/15 12:47:15;;;;;;;;;;;18.00;99.90;;;;;;5029708;28;19932;-68
2023/04/15 12:49:44;;;;;;;;;;;17.30;99.90;;;;;;5029762;28;20352;-67
2023/04/15 12:52:11;;;;;;;;;;;17.80;99.90;;;;;;5029075;28;19925;-66
2023/04/15 12:54:39;;;;;;;;;;;17.20;99.90;;;;;;5028762;28;21405;-67
2023/04/15 12:57:06;;;;;;;;;;;16.60;99.90;;;;;;5029317;28;19964;-67
2023/04/15 12:59:33;;;;;;;;;;;16.60;99.90;;;;;;5046021;28;19925;-67
2023/04/15 13:02:01;;;;;;;;;;;16.60;99.90;;;;;;5029089;28;19925;-68
2023/04/15 13:04:29;;;;;;;;;;;16.50;99.90;;;;;;5029134;28;19956;-68
2023/04/15 13:06:57;;;;;;;;;;;16.60;99.90;;;;;;5044183;28;20303;-67
2023/04/15 13:09:24;;;;;;;;;;;16.20;99.90;;;;;;5029768;28;19940;-69
2023/04/15 13:11:51;;;;;;;;;;;15.80;99.90;;;;;;5046180;28;19925;-67
2023/04/15 13:14:18;;;;;;;;;;;15.50;99.90;;;;;;5029828;28;19936;-66
2023/04/15 13:16:45;;;;;;;;;;;15.50;99.90;;;;;;5029309;28;20354;-67
2023/04/15 13:19:12;;;;;;;;;;;15.30;99.90;;;;;;5029666;28;20389;-67
2023/04/15 13:21:38;;;;;;;;;;;14.90;99.90;;;;;;5046025;28;20332;-66
2023/04/15 13:24:07;;;;;;;;;;;14.90;99.90;;;;;;5046204;28;19925;-69
2023/04/15 13:26:33;;;;;;;;;;;14.90;99.90;;;;;;5046546;28;19925;-68
2023/04/15 13:29:01;;;;;;;;;;;14.80;99.90;;;;;;5030022;28;19925;-66
2023/04/15 13:31:27;;;;;;;;;;;14.70;99.90;;;;;;5025946;28;20543;-67
2023/04/15 13:33:54;;;;;;;;;;;14.50;99.90;;;;;;5046008;28;20316;-67
2023/04/15 13:36:21;;;;;;;;;;;14.50;99.90;;;;;;5029879;28;19960;-66
2023/04/15 13:38:48;;;;;;;;;;;14.70;99.90;;;;;;5047431;28;20352;-67
2023/04/15 13:41:16;;;;;;;;;;;15.00;99.90;;;;;;5047312;28;19926;-67
2023/04/15 13:43:43;;;;;;;;;;;14.80;99.90;;;;;;5047988;28;19948;-67
2023/04/15 13:46:09;;;;;;;;;;;14.70;99.90;;;;;;5047262;28;19925;-66
2023/04/15 13:48:36;;;;;;;;;;;14.60;99.90;;;;;;5032748;28;19984;-67
2023/04/15 13:51:03;;;;;;;;;;;14.30;99.90;;;;;;5030630;28;19925;-67
2023/04/15 13:53:30;;;;;;;;;;;14.20;99.90;;;;;;5050339;28;19929;-66
2023/04/15 13:55:56;;;;;;;;;;;14.10;99.90;;;;;;5046385;28;19956;-67
2023/04/15 13:58:25;;;;;;;;;;;14.20;99.90;;;;;;5033021;28;19933;-67
2023/04/15 14:00:51;;;;;;;;;;;14.20;99.90;;;;;;5033526;28;19925;-67
2023/04/15 14:03:18;;;;;;;;;;;14.00;99.90;;;;;;5049161;28;19982;-66
2023/04/15 14:05:45;;;;;;;;;;;13.80;99.90;;;;;;5030048;28;19975;-67
2023/04/15 14:08:12;;;;;;;;;;;13.70;99.90;;;;;;5047122;28;20304;-67
2023/04/15 14:10:38;;;;;;;;;;;13.60;99.90;;;;;;5047062;28;19928;-67
2023/04/15 14:13:05;;;;;;;;;;;13.60;99.90;;;;;;5046663;28;20343;-67
2023/04/15 14:15:33;;;;;;;;;;;13.70;99.90;;;;;;5047164;28;20273;-65
2023/04/15 14:18:00;;;;;;;;;;;13.80;99.90;;;;;;5050314;28;19925;-67
2023/04/15 14:20:27;;;;;;;;;;;13.80;99.90;;;;;;5049006;28;19925;-67
2023/04/15 14:22:54;;;;;;;;;;;;;;;;;;5051591;28;20437;-68
2023/04/15 14:25:21;;;;;;;;;;;13.90;99.90;;;;;;5030227;28;19925;-66